sensor_id;sensor_type;location;lat;lon;timestamp;temperature;humidity
15262;DHT22;7733;51.554;13.590;2023-07-13T00:01:44;22.10;86.20
15262;DHT22;7733;51.554;13.590;2023-07-13T00:04:14;22.00;86.80
15262;DHT22;7733;51.554;13.590;2023-07-13T00:06:40;22.10;87.90
15262;DHT22;7733;51.554;13.590;2023-07-13T00:09:05;21.90;88.50
15262;DHT22;7733;51.554;13.590;2023-07-13T00:11:31;21.90;89.60
15262;DHT22;7733;51.554;13.590;2023-07-13T00:13:57;21.90;90.10
15262;DHT22;7733;51.554;13.590;2023-07-13T00:16:23;22.20;89.10
15262;DHT22;7733;51.554;13.590;2023-07-13T00:18:49;22.30;88.50
15262;DHT22;7733;51.554;13.590;2023-07-13T00:21:15;22.30;87.90
15262;DHT22;7733;51.554;13.590;2023-07-13T00:23:42;22.00;88.50
15262;DHT22;7733;51.554;13.590;2023-07-13T00:26:09;21.70;90.20
15262;DHT22;7733;51.554;13.590;2023-07-13T00:28:37;21.80;90.20
15262;DHT22;7733;51.554;13.590;2023-07-13T00:31:05;21.80;90.80
15262;DHT22;7733;51.554;13.590;2023-07-13T00:33:31;21.40;92.20
15262;DHT22;7733;51.554;13.590;2023-07-13T00:35:57;21.60;91.70
15262;DHT22;7733;51.554;13.590;2023-07-13T00:38:23;21.40;91.80
15262;DHT22;7733;51.554;13.590;2023-07-13T00:40:49;21.20;92.60
15262;DHT22;7733;51.554;13.590;2023-07-13T00:43:21;20.80;94.70
15262;DHT22;7733;51.554;13.590;2023-07-13T00:48:19;21.00;94.80
15262;DHT22;7733;51.554;13.590;2023-07-13T00:50:49;21.10;94.00
15262;DHT22;7733;51.554;13.590;2023-07-13T00:53:19;21.10;93.40
15262;DHT22;7733;51.554;13.590;2023-07-13T00:55:47;21.20;92.80
15262;DHT22;7733;51.554;13.590;2023-07-13T00:58:15;21.00;92.60
15262;DHT22;7733;51.554;13.590;2023-07-13T01:00:41;20.90;92.20
15262;DHT22;7733;51.554;13.590;2023-07-13T01:03:07;21.10;91.80
15262;DHT22;7733;51.554;13.590;2023-07-13T01:05:35;21.10;91.40
15262;DHT22;7733;51.554;13.590;2023-07-13T01:08:03;21.00;91.50
15262;DHT22;7733;51.554;13.590;2023-07-13T01:10:30;20.80;91.90
15262;DHT22;7733;51.554;13.590;2023-07-13T01:13:05;20.70;92.10
15262;DHT22;7733;51.554;13.590;2023-07-13T01:15:44;20.50;92.80
15262;DHT22;7733;51.554;13.590;2023-07-13T01:18:22;20.30;94.10
15262;DHT22;7733;51.554;13.590;2023-07-13T01:20:58;20.30;94.30
15262;DHT22;7733;51.554;13.590;2023-07-13T01:23:29;20.40;93.80
15262;DHT22;7733;51.554;13.590;2023-07-13T01:25:56;20.50;93.10
15262;DHT22;7733;51.554;13.590;2023-07-13T01:28:24;20.80;92.30
15262;DHT22;7733;51.554;13.590;2023-07-13T01:30:53;20.80;91.80
15262;DHT22;7733;51.554;13.590;2023-07-13T01:33:20;20.80;91.60
15262;DHT22;7733;51.554;13.590;2023-07-13T01:35:46;20.80;91.90
15262;DHT22;7733;51.554;13.590;2023-07-13T01:38:20;20.70;92.00
15262;DHT22;7733;51.554;13.590;2023-07-13T01:40:48;20.50;92.00
15262;DHT22;7733;51.554;13.590;2023-07-13T01:43:14;20.60;91.70
15262;DHT22;7733;51.554;13.590;2023-07-13T01:45:39;20.50;91.50
15262;DHT22;7733;51.554;13.590;2023-07-13T01:48:05;20.60;91.50
15262;DHT22;7733;51.554;13.590;2023-07-13T01:50:34;20.60;91.50
15262;DHT22;7733;51.554;13.590;2023-07-13T01:53:00;20.70;91.60
15262;DHT22;7733;51.554;13.590;2023-07-13T01:55:28;20.50;91.90
15262;DHT22;7733;51.554;13.590;2023-07-13T01:57:54;20.40;92.40
15262;DHT22;7733;51.554;13.590;2023-07-13T02:00:20;20.40;92.70
15262;DHT22;7733;51.554;13.590;2023-07-13T02:02:46;20.70;92.20
15262;DHT22;7733;51.554;13.590;2023-07-13T02:05:12;20.90;91.70
15262;DHT22;7733;51.554;13.590;2023-07-13T02:07:39;20.70;91.80
15262;DHT22;7733;51.554;13.590;2023-07-13T02:10:06;20.70;92.20
15262;DHT22;7733;51.554;13.590;2023-07-13T02:12:34;20.70;92.00
15262;DHT22;7733;51.554;13.590;2023-07-13T02:15:00;20.90;91.50
15262;DHT22;7733;51.554;13.590;2023-07-13T02:17:27;20.90;91.50
15262;DHT22;7733;51.554;13.590;2023-07-13T02:19:53;20.70;92.00
15262;DHT22;7733;51.554;13.590;2023-07-13T02:22:19;20.50;92.20
15262;DHT22;7733;51.554;13.590;2023-07-13T02:24:45;20.40;92.40
15262;DHT22;7733;51.554;13.590;2023-07-13T02:27:11;20.40;92.40
15262;DHT22;7733;51.554;13.590;2023-07-13T02:29:37;20.50;92.50
15262;DHT22;7733;51.554;13.590;2023-07-13T02:32:03;20.50;92.60
15262;DHT22;7733;51.554;13.590;2023-07-13T02:34:29;20.30;93.30
15262;DHT22;7733;51.554;13.590;2023-07-13T02:36:55;20.10;94.30
15262;DHT22;7733;51.554;13.590;2023-07-13T02:39:20;20.00;94.50
15262;DHT22;7733;51.554;13.590;2023-07-13T02:41:46;19.90;94.50
15262;DHT22;7733;51.554;13.590;2023-07-13T02:44:15;19.90;94.30
15262;DHT22;7733;51.554;13.590;2023-07-13T02:46:41;19.80;94.80
15262;DHT22;7733;51.554;13.590;2023-07-13T02:49:06;19.80;94.60
15262;DHT22;7733;51.554;13.590;2023-07-13T02:51:33;19.70;95.20
15262;DHT22;7733;51.554;13.590;2023-07-13T02:54:03;19.60;95.60
15262;DHT22;7733;51.554;13.590;2023-07-13T02:56:31;19.60;96.10
15262;DHT22;7733;51.554;13.590;2023-07-13T02:58:57;19.60;96.50
15262;DHT22;7733;51.554;13.590;2023-07-13T03:01:24;19.80;96.60
15262;DHT22;7733;51.554;13.590;2023-07-13T03:03:51;20.00;95.80
15262;DHT22;7733;51.554;13.590;2023-07-13T03:06:18;20.20;95.20
15262;DHT22;7733;51.554;13.590;2023-07-13T03:08:44;20.10;95.70
15262;DHT22;7733;51.554;13.590;2023-07-13T03:11:13;19.80;96.40
15262;DHT22;7733;51.554;13.590;2023-07-13T03:13:42;20.10;96.00
15262;DHT22;7733;51.554;13.590;2023-07-13T03:16:09;20.30;95.40
15262;DHT22;7733;51.554;13.590;2023-07-13T03:18:37;20.10;95.80
15262;DHT22;7733;51.554;13.590;2023-07-13T03:21:04;19.90;96.40
15262;DHT22;7733;51.554;13.590;2023-07-13T03:23:30;19.80;96.80
15262;DHT22;7733;51.554;13.590;2023-07-13T03:26:11;19.80;97.20
15262;DHT22;7733;51.554;13.590;2023-07-13T03:28:39;19.60;98.50
15262;DHT22;7733;51.554;13.590;2023-07-13T03:31:08;19.30;99.90
15262;DHT22;7733;51.554;13.590;2023-07-13T03:33:36;19.20;99.90
15262;DHT22;7733;51.554;13.590;2023-07-13T03:36:03;19.40;99.90
15262;DHT22;7733;51.554;13.590;2023-07-13T03:38:30;19.70;99.90
15262;DHT22;7733;51.554;13.590;2023-07-13T03:40:56;19.80;99.90
15262;DHT22;7733;51.554;13.590;2023-07-13T03:43:22;19.70;99.90
15262;DHT22;7733;51.554;13.590;2023-07-13T03:45:48;19.60;99.90
15262;DHT22;7733;51.554;13.590;2023-07-13T03:48:14;19.80;99.90
15262;DHT22;7733;51.554;13.590;2023-07-13T03:50:40;20.10;99.90
15262;DHT22;7733;51.554;13.590;2023-07-13T03:53:06;20.10;99.70
15262;DHT22;7733;51.554;13.590;2023-07-13T03:55:32;20.20;99.60
15262;DHT22;7733;51.554;13.590;2023-07-13T03:58:06;20.30;99.10
15262;DHT22;7733;51.554;13.590;2023-07-13T04:00:52;20.40;98.90
15262;DHT22;7733;51.554;13.590;2023-07-13T04:03:18;20.10;99.70
15262;DHT22;7733;51.554;13.590;2023-07-13T04:05:44;19.90;99.90
15262;DHT22;7733;51.554;13.590;2023-07-13T04:08:10;20.10;99.90
15262;DHT22;7733;51.554;13.590;2023-07-13T04:10:35;20.10;99.90
15262;DHT22;7733;51.554;13.590;2023-07-13T04:13:01;20.30;99.20
15262;DHT22;7733;51.554;13.590;2023-07-13T04:15:29;20.20;99.60
15262;DHT22;7733;51.554;13.590;2023-07-13T04:17:56;19.80;99.90
15262;DHT22;7733;51.554;13.590;2023-07-13T04:20:23;19.50;99.90
15262;DHT22;7733;51.554;13.590;2023-07-13T04:22:50;19.40;99.90
15262;DHT22;7733;51.554;13.590;2023-07-13T04:25:15;19.50;99.90
15262;DHT22;7733;51.554;13.590;2023-07-13T04:27:41;19.40;99.90
15262;DHT22;7733;51.554;13.590;2023-07-13T04:30:07;19.40;99.90
15262;DHT22;7733;51.554;13.590;2023-07-13T04:32:33;19.40;99.90
15262;DHT22;7733;51.554;13.590;2023-07-13T04:34:59;19.50;99.90
15262;DHT22;7733;51.554;13.590;2023-07-13T04:37:26;19.40;99.90
15262;DHT22;7733;51.554;13.590;2023-07-13T04:39:52;19.20;99.90
15262;DHT22;7733;51.554;13.590;2023-07-13T04:42:18;19.30;99.90
15262;DHT22;7733;51.554;13.590;2023-07-13T04:44:48;19.40;99.90
15262;DHT22;7733;51.554;13.590;2023-07-13T04:47:15;19.30;99.90
15262;DHT22;7733;51.554;13.590;2023-07-13T04:49:41;19.30;99.90
15262;DHT22;7733;51.554;13.590;2023-07-13T04:52:07;19.20;99.90
15262;DHT22;7733;51.554;13.590;2023-07-13T04:54:34;19.20;99.90
15262;DHT22;7733;51.554;13.590;2023-07-13T04:57:00;19.20;99.90
15262;DHT22;7733;51.554;13.590;2023-07-13T04:59:26;19.20;99.90
15262;DHT22;7733;51.554;13.590;2023-07-13T05:01:53;19.00;99.90
15262;DHT22;7733;51.554;13.590;2023-07-13T05:04:19;18.90;99.90
15262;DHT22;7733;51.554;13.590;2023-07-13T05:06:44;19.00;99.90
15262;DHT22;7733;51.554;13.590;2023-07-13T05:09:10;19.00;99.90
15262;DHT22;7733;51.554;13.590;2023-07-13T05:11:38;18.90;99.90
15262;DHT22;7733;51.554;13.590;2023-07-13T05:14:03;18.90;99.90
15262;DHT22;7733;51.554;13.590;2023-07-13T05:16:29;19.00;99.90
15262;DHT22;7733;51.554;13.590;2023-07-13T05:18:55;19.10;99.90
15262;DHT22;7733;51.554;13.590;2023-07-13T05:21:21;19.10;99.90
15262;DHT22;7733;51.554;13.590;2023-07-13T05:23:47;19.30;99.90
15262;DHT22;7733;51.554;13.590;2023-07-13T05:26:13;19.40;99.90
15262;DHT22;7733;51.554;13.590;2023-07-13T05:28:39;19.40;99.90
15262;DHT22;7733;51.554;13.590;2023-07-13T05:31:07;19.50;99.90
15262;DHT22;7733;51.554;13.590;2023-07-13T05:33:34;19.80;99.90
15262;DHT22;7733;51.554;13.590;2023-07-13T05:36:00;19.90;99.90
15262;DHT22;7733;51.554;13.590;2023-07-13T05:38:26;19.90;99.90
15262;DHT22;7733;51.554;13.590;2023-07-13T05:40:54;20.10;99.90
15262;DHT22;7733;51.554;13.590;2023-07-13T05:43:21;20.10;99.90
15262;DHT22;7733;51.554;13.590;2023-07-13T05:45:48;20.30;99.90
15262;DHT22;7733;51.554;13.590;2023-07-13T05:48:15;20.60;99.90
15262;DHT22;7733;51.554;13.590;2023-07-13T05:50:41;20.70;99.90
15262;DHT22;7733;51.554;13.590;2023-07-13T05:53:07;20.90;99.90
15262;DHT22;7733;51.554;13.590;2023-07-13T05:55:33;20.90;99.90
15262;DHT22;7733;51.554;13.590;2023-07-13T05:57:59;20.60;99.90
15262;DHT22;7733;51.554;13.590;2023-07-13T06:00:26;20.90;99.90
15262;DHT22;7733;51.554;13.590;2023-07-13T06:02:52;21.10;99.90
15262;DHT22;7733;51.554;13.590;2023-07-13T06:05:18;21.30;99.90
15262;DHT22;7733;51.554;13.590;2023-07-13T06:07:44;21.30;99.90
15262;DHT22;7733;51.554;13.590;2023-07-13T06:10:10;21.20;99.90
15262;DHT22;7733;51.554;13.590;2023-07-13T06:12:36;21.30;99.90
15262;DHT22;7733;51.554;13.590;2023-07-13T06:15:02;21.50;99.90
15262;DHT22;7733;51.554;13.590;2023-07-13T06:17:29;21.40;99.80
15262;DHT22;7733;51.554;13.590;2023-07-13T06:19:54;21.40;99.70
15262;DHT22;7733;51.554;13.590;2023-07-13T06:22:20;21.60;99.20
15262;DHT22;7733;51.554;13.590;2023-07-13T06:24:46;21.80;98.40
15262;DHT22;7733;51.554;13.590;2023-07-13T06:27:12;21.80;98.00
15262;DHT22;7733;51.554;13.590;2023-07-13T06:29:37;22.00;97.70
15262;DHT22;7733;51.554;13.590;2023-07-13T06:32:03;22.20;97.50
15262;DHT22;7733;51.554;13.590;2023-07-13T06:34:29;22.00;96.80
15262;DHT22;7733;51.554;13.590;2023-07-13T06:36:55;22.30;96.30
15262;DHT22;7733;51.554;13.590;2023-07-13T06:39:21;22.40;95.90
15262;DHT22;7733;51.554;13.590;2023-07-13T06:41:46;22.40;95.40
15262;DHT22;7733;51.554;13.590;2023-07-13T06:44:12;22.40;94.60
15262;DHT22;7733;51.554;13.590;2023-07-13T06:46:38;22.30;94.60
15262;DHT22;7733;51.554;13.590;2023-07-13T06:49:03;22.30;94.60
15262;DHT22;7733;51.554;13.590;2023-07-13T06:51:29;22.30;94.80
15262;DHT22;7733;51.554;13.590;2023-07-13T06:53:55;22.60;93.90
15262;DHT22;7733;51.554;13.590;2023-07-13T06:56:21;22.70;93.30
15262;DHT22;7733;51.554;13.590;2023-07-13T06:58:47;22.70;93.30
15262;DHT22;7733;51.554;13.590;2023-07-13T07:01:13;22.60;92.70
15262;DHT22;7733;51.554;13.590;2023-07-13T07:03:38;22.80;92.90
15262;DHT22;7733;51.554;13.590;2023-07-13T07:06:23;22.80;92.80
15262;DHT22;7733;51.554;13.590;2023-07-13T07:08:49;22.60;92.50
15262;DHT22;7733;51.554;13.590;2023-07-13T07:11:19;22.70;92.40
15262;DHT22;7733;51.554;13.590;2023-07-13T07:13:48;22.80;92.60
15262;DHT22;7733;51.554;13.590;2023-07-13T07:16:14;22.90;92.80
15262;DHT22;7733;51.554;13.590;2023-07-13T07:18:40;23.00;92.20
15262;DHT22;7733;51.554;13.590;2023-07-13T07:21:06;23.20;92.20
15262;DHT22;7733;51.554;13.590;2023-07-13T07:23:32;23.20;91.90
15262;DHT22;7733;51.554;13.590;2023-07-13T07:25:58;23.20;92.40
15262;DHT22;7733;51.554;13.590;2023-07-13T07:28:24;23.10;92.10
15262;DHT22;7733;51.554;13.590;2023-07-13T07:30:53;23.10;91.90
15262;DHT22;7733;51.554;13.590;2023-07-13T07:33:19;23.20;91.60
15262;DHT22;7733;51.554;13.590;2023-07-13T07:35:45;23.20;91.30
15262;DHT22;7733;51.554;13.590;2023-07-13T07:38:11;23.10;91.10
15262;DHT22;7733;51.554;13.590;2023-07-13T07:40:38;23.20;90.90
15262;DHT22;7733;51.554;13.590;2023-07-13T07:43:06;23.20;91.10
15262;DHT22;7733;51.554;13.590;2023-07-13T07:45:32;23.30;91.20
15262;DHT22;7733;51.554;13.590;2023-07-13T07:47:59;23.40;91.30
15262;DHT22;7733;51.554;13.590;2023-07-13T07:50:28;23.40;91.00
15262;DHT22;7733;51.554;13.590;2023-07-13T07:52:54;23.70;90.90
15262;DHT22;7733;51.554;13.590;2023-07-13T07:55:22;23.80;91.00
15262;DHT22;7733;51.554;13.590;2023-07-13T07:57:48;23.50;91.10
15262;DHT22;7733;51.554;13.590;2023-07-13T08:00:15;23.80;90.90
15262;DHT22;7733;51.554;13.590;2023-07-13T08:02:42;23.70;90.40
15262;DHT22;7733;51.554;13.590;2023-07-13T08:05:09;23.90;90.20
15262;DHT22;7733;51.554;13.590;2023-07-13T08:07:36;23.60;90.60
15262;DHT22;7733;51.554;13.590;2023-07-13T08:10:03;23.70;90.60
15262;DHT22;7733;51.554;13.590;2023-07-13T08:12:29;23.90;90.30
15262;DHT22;7733;51.554;13.590;2023-07-13T08:14:58;23.90;90.40
15262;DHT22;7733;51.554;13.590;2023-07-13T08:17:26;24.00;89.60
15262;DHT22;7733;51.554;13.590;2023-07-13T08:19:52;24.20;89.00
15262;DHT22;7733;51.554;13.590;2023-07-13T08:22:18;24.30;88.50
15262;DHT22;7733;51.554;13.590;2023-07-13T08:24:44;23.80;90.00
15262;DHT22;7733;51.554;13.590;2023-07-13T08:27:11;23.50;90.00
15262;DHT22;7733;51.554;13.590;2023-07-13T08:29:37;23.60;90.80
15262;DHT22;7733;51.554;13.590;2023-07-13T08:32:07;23.70;90.10
15262;DHT22;7733;51.554;13.590;2023-07-13T08:34:35;23.80;90.40
15262;DHT22;7733;51.554;13.590;2023-07-13T08:37:01;23.70;89.70
15262;DHT22;7733;51.554;13.590;2023-07-13T08:39:29;23.80;88.10
15262;DHT22;7733;51.554;13.590;2023-07-13T08:42:01;24.20;87.40
15262;DHT22;7733;51.554;13.590;2023-07-13T08:47:16;24.60;86.50
15262;DHT22;7733;51.554;13.590;2023-07-13T08:49:45;25.00;84.20
15262;DHT22;7733;51.554;13.590;2023-07-13T08:52:30;25.10;81.60
15262;DHT22;7733;51.554;13.590;2023-07-13T08:58:15;25.50;82.90
15262;DHT22;7733;51.554;13.590;2023-07-13T09:00:52;24.80;82.30
15262;DHT22;7733;51.554;13.590;2023-07-13T09:03:31;24.30;83.40
15262;DHT22;7733;51.554;13.590;2023-07-13T09:06:09;24.10;85.00
15262;DHT22;7733;51.554;13.590;2023-07-13T09:11:53;24.00;85.20
15262;DHT22;7733;51.554;13.590;2023-07-13T09:14:38;24.10;85.10
15262;DHT22;7733;51.554;13.590;2023-07-13T09:17:20;24.70;84.50
15262;DHT22;7733;51.554;13.590;2023-07-13T09:19:57;25.10;82.70
15262;DHT22;7733;51.554;13.590;2023-07-13T09:22:31;25.20;81.50
15262;DHT22;7733;51.554;13.590;2023-07-13T09:27:43;24.80;82.10
15262;DHT22;7733;51.554;13.590;2023-07-13T09:32:44;24.60;83.50
15262;DHT22;7733;51.554;13.590;2023-07-13T09:35:19;24.50;83.90
15262;DHT22;7733;51.554;13.590;2023-07-13T09:37:48;24.10;83.30
15262;DHT22;7733;51.554;13.590;2023-07-13T09:40:26;24.10;84.20
15262;DHT22;7733;51.554;13.590;2023-07-13T09:42:58;24.20;84.40
15262;DHT22;7733;51.554;13.590;2023-07-13T09:45:29;24.30;83.50
15262;DHT22;7733;51.554;13.590;2023-07-13T09:48:10;24.20;84.50
15262;DHT22;7733;51.554;13.590;2023-07-13T09:50:39;24.20;83.60
15262;DHT22;7733;51.554;13.590;2023-07-13T09:53:12;24.30;82.40
15262;DHT22;7733;51.554;13.590;2023-07-13T09:55:44;24.50;83.10
15262;DHT22;7733;51.554;13.590;2023-07-13T09:58:16;24.70;82.60
15262;DHT22;7733;51.554;13.590;2023-07-13T10:01:00;24.70;82.00
15262;DHT22;7733;51.554;13.590;2023-07-13T10:03:29;24.80;81.30
15262;DHT22;7733;51.554;13.590;2023-07-13T10:06:15;24.80;80.30
15262;DHT22;7733;51.554;13.590;2023-07-13T10:08:45;24.70;79.00
15262;DHT22;7733;51.554;13.590;2023-07-13T10:11:21;24.60;79.30
15262;DHT22;7733;51.554;13.590;2023-07-13T10:14:02;24.50;80.40
15262;DHT22;7733;51.554;13.590;2023-07-13T10:16:36;24.50;80.20
15262;DHT22;7733;51.554;13.590;2023-07-13T10:19:08;24.50;80.00
15262;DHT22;7733;51.554;13.590;2023-07-13T10:21:56;24.50;79.00
15262;DHT22;7733;51.554;13.590;2023-07-13T10:24:33;24.60;78.60
15262;DHT22;7733;51.554;13.590;2023-07-13T10:27:09;25.00;77.80
15262;DHT22;7733;51.554;13.590;2023-07-13T10:29:53;25.20;76.80
15262;DHT22;7733;51.554;13.590;2023-07-13T10:32:26;25.50;78.30
15262;DHT22;7733;51.554;13.590;2023-07-13T10:34:53;26.20;75.10
15262;DHT22;7733;51.554;13.590;2023-07-13T10:37:27;26.20;72.70
15262;DHT22;7733;51.554;13.590;2023-07-13T10:40:55;26.10;73.90
15262;DHT22;7733;51.554;13.590;2023-07-13T10:43:43;26.10;73.00
15262;DHT22;7733;51.554;13.590;2023-07-13T10:46:14;26.00;72.90
15262;DHT22;7733;51.554;13.590;2023-07-13T10:48:44;26.00;72.60
15262;DHT22;7733;51.554;13.590;2023-07-13T10:51:14;26.10;72.10
15262;DHT22;7733;51.554;13.590;2023-07-13T10:53:43;26.50;70.00
15262;DHT22;7733;51.554;13.590;2023-07-13T10:56:29;26.50;72.10
15262;DHT22;7733;51.554;13.590;2023-07-13T10:59:25;25.50;73.40
15262;DHT22;7733;51.554;13.590;2023-07-13T11:02:04;25.20;74.20
15262;DHT22;7733;51.554;13.590;2023-07-13T11:04:47;25.00;73.40
15262;DHT22;7733;51.554;13.590;2023-07-13T11:07:24;24.80;74.10
15262;DHT22;7733;51.554;13.590;2023-07-13T11:10:03;24.70;71.30
15262;DHT22;7733;51.554;13.590;2023-07-13T11:12:51;24.50;69.10
15262;DHT22;7733;51.554;13.590;2023-07-13T11:15:32;24.40;70.00
15262;DHT22;7733;51.554;13.590;2023-07-13T11:18:21;24.30;70.50
15262;DHT22;7733;51.554;13.590;2023-07-13T11:20:49;24.50;70.00
15262;DHT22;7733;51.554;13.590;2023-07-13T11:25:44;24.70;69.70
15262;DHT22;7733;51.554;13.590;2023-07-13T11:33:49;24.90;70.40
15262;DHT22;7733;51.554;13.590;2023-07-13T11:36:19;24.80;69.30
15262;DHT22;7733;51.554;13.590;2023-07-13T11:39:26;24.90;70.10
15262;DHT22;7733;51.554;13.590;2023-07-13T11:42:17;25.00;71.30
15262;DHT22;7733;51.554;13.590;2023-07-13T11:44:47;25.00;69.90
15262;DHT22;7733;51.554;13.590;2023-07-13T11:47:18;25.60;71.20
15262;DHT22;7733;51.554;13.590;2023-07-13T11:49:52;25.80;69.80
15262;DHT22;7733;51.554;13.590;2023-07-13T11:52:34;25.60;69.10
15262;DHT22;7733;51.554;13.590;2023-07-13T11:55:08;26.00;69.10
15262;DHT22;7733;51.554;13.590;2023-07-13T11:57:47;26.40;68.30
15262;DHT22;7733;51.554;13.590;2023-07-13T12:00:21;26.70;68.60
15262;DHT22;7733;51.554;13.590;2023-07-13T12:02:51;26.20;70.00
15262;DHT22;7733;51.554;13.590;2023-07-13T12:05:20;25.70;70.40
15262;DHT22;7733;51.554;13.590;2023-07-13T12:07:47;25.30;70.20
15262;DHT22;7733;51.554;13.590;2023-07-13T12:10:18;25.20;71.80
15262;DHT22;7733;51.554;13.590;2023-07-13T12:13:00;25.20;71.90
15262;DHT22;7733;51.554;13.590;2023-07-13T12:15:43;25.40;71.30
15262;DHT22;7733;51.554;13.590;2023-07-13T12:18:23;25.70;70.90
15262;DHT22;7733;51.554;13.590;2023-07-13T12:20:57;25.90;68.80
15262;DHT22;7733;51.554;13.590;2023-07-13T12:23:28;26.40;68.50
15262;DHT22;7733;51.554;13.590;2023-07-13T12:25:58;26.70;67.80
15262;DHT22;7733;51.554;13.590;2023-07-13T12:28:38;26.90;66.70
15262;DHT22;7733;51.554;13.590;2023-07-13T12:34:17;26.90;66.30
15262;DHT22;7733;51.554;13.590;2023-07-13T12:36:50;27.10;66.20
15262;DHT22;7733;51.554;13.590;2023-07-13T12:41:50;27.20;64.70
15262;DHT22;7733;51.554;13.590;2023-07-13T12:44:29;27.20;63.40
15262;DHT22;7733;51.554;13.590;2023-07-13T12:47:03;27.20;61.90
15262;DHT22;7733;51.554;13.590;2023-07-13T12:49:33;27.10;64.10
15262;DHT22;7733;51.554;13.590;2023-07-13T12:52:09;26.40;64.00
15262;DHT22;7733;51.554;13.590;2023-07-13T12:54:40;26.20;65.70
15262;DHT22;7733;51.554;13.590;2023-07-13T12:57:08;26.30;66.00
15262;DHT22;7733;51.554;13.590;2023-07-13T12:59:41;26.60;64.90
15262;DHT22;7733;51.554;13.590;2023-07-13T13:02:37;27.00;64.30
15262;DHT22;7733;51.554;13.590;2023-07-13T13:05:03;27.00;64.30
15262;DHT22;7733;51.554;13.590;2023-07-13T13:07:29;26.70;63.30
15262;DHT22;7733;51.554;13.590;2023-07-13T13:09:55;26.70;63.60
15262;DHT22;7733;51.554;13.590;2023-07-13T13:12:22;26.70;63.30
15262;DHT22;7733;51.554;13.590;2023-07-13T13:14:51;27.10;61.70
15262;DHT22;7733;51.554;13.590;2023-07-13T13:17:29;26.90;61.00
15262;DHT22;7733;51.554;13.590;2023-07-13T13:19:56;26.80;60.70
15262;DHT22;7733;51.554;13.590;2023-07-13T13:22:22;26.60;62.90
15262;DHT22;7733;51.554;13.590;2023-07-13T13:24:48;26.80;61.60
15262;DHT22;7733;51.554;13.590;2023-07-13T13:27:19;26.50;62.10
15262;DHT22;7733;51.554;13.590;2023-07-13T13:29:49;26.50;61.60
15262;DHT22;7733;51.554;13.590;2023-07-13T13:32:19;26.40;61.00
15262;DHT22;7733;51.554;13.590;2023-07-13T13:34:45;26.60;60.80
15262;DHT22;7733;51.554;13.590;2023-07-13T13:37:22;26.50;60.90
15262;DHT22;7733;51.554;13.590;2023-07-13T13:39:49;26.60;61.60
15262;DHT22;7733;51.554;13.590;2023-07-13T13:42:16;26.30;61.80
15262;DHT22;7733;51.554;13.590;2023-07-13T13:44:41;26.20;62.70
15262;DHT22;7733;51.554;13.590;2023-07-13T13:47:30;26.10;63.00
15262;DHT22;7733;51.554;13.590;2023-07-13T13:49:58;26.20;63.50
15262;DHT22;7733;51.554;13.590;2023-07-13T13:52:25;26.20;63.10
15262;DHT22;7733;51.554;13.590;2023-07-13T13:54:51;26.10;62.90
15262;DHT22;7733;51.554;13.590;2023-07-13T13:57:22;25.90;62.80
15262;DHT22;7733;51.554;13.590;2023-07-13T13:59:49;26.00;63.00
15262;DHT22;7733;51.554;13.590;2023-07-13T14:02:23;26.30;62.80
15262;DHT22;7733;51.554;13.590;2023-07-13T14:04:59;26.60;60.60
15262;DHT22;7733;51.554;13.590;2023-07-13T14:07:27;26.90;60.90
15262;DHT22;7733;51.554;13.590;2023-07-13T14:09:54;27.20;59.80
15262;DHT22;7733;51.554;13.590;2023-07-13T14:12:22;27.40;59.80
15262;DHT22;7733;51.554;13.590;2023-07-13T14:14:51;27.40;60.00
15262;DHT22;7733;51.554;13.590;2023-07-13T14:17:22;27.40;59.50
15262;DHT22;7733;51.554;13.590;2023-07-13T14:19:52;26.80;60.50
15262;DHT22;7733;51.554;13.590;2023-07-13T14:22:26;26.80;60.60
15262;DHT22;7733;51.554;13.590;2023-07-13T14:24:53;27.20;60.30
15262;DHT22;7733;51.554;13.590;2023-07-13T14:27:20;26.80;60.00
15262;DHT22;7733;51.554;13.590;2023-07-13T14:29:47;26.80;59.40
15262;DHT22;7733;51.554;13.590;2023-07-13T14:32:13;27.20;60.50
15262;DHT22;7733;51.554;13.590;2023-07-13T14:34:39;26.70;58.90
15262;DHT22;7733;51.554;13.590;2023-07-13T14:37:05;26.70;59.00
15262;DHT22;7733;51.554;13.590;2023-07-13T14:39:39;26.80;59.10
15262;DHT22;7733;51.554;13.590;2023-07-13T14:42:09;26.70;58.70
15262;DHT22;7733;51.554;13.590;2023-07-13T14:44:37;26.60;59.70
15262;DHT22;7733;51.554;13.590;2023-07-13T14:47:04;26.60;59.10
15262;DHT22;7733;51.554;13.590;2023-07-13T14:49:32;26.60;58.90
15262;DHT22;7733;51.554;13.590;2023-07-13T14:54:56;26.80;59.10
15262;DHT22;7733;51.554;13.590;2023-07-13T14:57:22;27.00;58.70
15262;DHT22;7733;51.554;13.590;2023-07-13T14:59:48;27.10;59.20
15262;DHT22;7733;51.554;13.590;2023-07-13T15:02:31;26.80;59.50
15262;DHT22;7733;51.554;13.590;2023-07-13T15:04:59;26.80;59.50
15262;DHT22;7733;51.554;13.590;2023-07-13T15:07:26;26.90;59.00
15262;DHT22;7733;51.554;13.590;2023-07-13T15:09:52;27.00;58.60
15262;DHT22;7733;51.554;13.590;2023-07-13T15:12:18;26.90;57.60
15262;DHT22;7733;51.554;13.590;2023-07-13T15:14:45;26.80;57.80
15262;DHT22;7733;51.554;13.590;2023-07-13T15:17:44;26.70;57.50
15262;DHT22;7733;51.554;13.590;2023-07-13T15:20:32;26.70;57.30
15262;DHT22;7733;51.554;13.590;2023-07-13T15:23:01;26.90;56.60
15262;DHT22;7733;51.554;13.590;2023-07-13T15:25:30;27.00;57.70
15262;DHT22;7733;51.554;13.590;2023-07-13T15:27:58;26.80;57.90
15262;DHT22;7733;51.554;13.590;2023-07-13T15:30:41;26.70;57.00
15262;DHT22;7733;51.554;13.590;2023-07-13T15:33:26;26.70;57.50
15262;DHT22;7733;51.554;13.590;2023-07-13T15:35:54;26.70;57.90
15262;DHT22;7733;51.554;13.590;2023-07-13T15:38:27;26.90;59.00
15262;DHT22;7733;51.554;13.590;2023-07-13T15:40:55;26.80;57.80
15262;DHT22;7733;51.554;13.590;2023-07-13T15:43:22;26.80;57.90
15262;DHT22;7733;51.554;13.590;2023-07-13T15:45:48;27.00;58.00
15262;DHT22;7733;51.554;13.590;2023-07-13T15:48:18;27.00;58.10
15262;DHT22;7733;51.554;13.590;2023-07-13T15:50:49;26.60;58.30
15262;DHT22;7733;51.554;13.590;2023-07-13T15:53:29;26.20;58.10
15262;DHT22;7733;51.554;13.590;2023-07-13T15:55:57;26.30;58.40
15262;DHT22;7733;51.554;13.590;2023-07-13T15:58:23;26.00;58.30
15262;DHT22;7733;51.554;13.590;2023-07-13T16:00:50;26.10;58.70
15262;DHT22;7733;51.554;13.590;2023-07-13T16:03:17;26.10;59.30
15262;DHT22;7733;51.554;13.590;2023-07-13T16:05:44;26.00;59.80
15262;DHT22;7733;51.554;13.590;2023-07-13T16:08:30;26.00;59.50
15262;DHT22;7733;51.554;13.590;2023-07-13T16:10:59;25.90;59.50
15262;DHT22;7733;51.554;13.590;2023-07-13T16:13:26;25.80;59.20
15262;DHT22;7733;51.554;13.590;2023-07-13T16:15:53;25.70;59.50
15262;DHT22;7733;51.554;13.590;2023-07-13T16:18:21;25.70;59.70
15262;DHT22;7733;51.554;13.590;2023-07-13T16:20:47;25.60;58.80